sensor_id;sensor_type;location;lat;lon;timestamp;P1;durP1;ratioP1;P2;durP2;ratioP2
71637;SDS011;59485;43.542;-5.676;2022-08-21T00:01:27;15.48;;;4.18;;
71637;SDS011;59485;43.542;-5.676;2022-08-21T00:03:54;12.50;;;3.85;;
71637;SDS011;59485;43.542;-5.676;2022-08-21T00:06:20;23.45;;;8.07;;
71637;SDS011;59485;43.542;-5.676;2022-08-21T00:08:46;23.87;;;9.93;;
71637;SDS011;59485;43.542;-5.676;2022-08-21T00:11:12;24.00;;;9.32;;
71637;SDS011;59485;43.542;-5.676;2022-08-21T00:13:38;28.80;;;11.00;;
71637;SDS011;59485;43.542;-5.676;2022-08-21T00:16:04;26.33;;;11.32;;
71637;SDS011;59485;43.542;-5.676;2022-08-21T00:18:30;35.03;;;13.60;;
71637;SDS011;59485;43.542;-5.676;2022-08-21T00:20:56;35.72;;;13.20;;
71637;SDS011;59485;43.542;-5.676;2022-08-21T00:23:22;46.73;;;15.63;;
71637;SDS011;59485;43.542;-5.676;2022-08-21T00:25:47;27.08;;;12.43;;
71637;SDS011;59485;43.542;-5.676;2022-08-21T00:28:14;28.83;;;13.47;;
71637;SDS011;59485;43.542;-5.676;2022-08-21T00:30:40;29.27;;;11.10;;
71637;SDS011;59485;43.542;-5.676;2022-08-21T00:33:06;27.48;;;11.85;;
71637;SDS011;59485;43.542;-5.676;2022-08-21T00:35:34;45.00;;;12.38;;
71637;SDS011;59485;43.542;-5.676;2022-08-21T00:38:03;22.88;;;9.68;;
71637;SDS011;59485;43.542;-5.676;2022-08-21T00:40:39;25.33;;;10.87;;
71637;SDS011;59485;43.542;-5.676;2022-08-21T00:43:17;26.13;;;10.20;;
71637;SDS011;59485;43.542;-5.676;2022-08-21T00:45:45;22.52;;;8.30;;
71637;SDS011;59485;43.542;-5.676;2022-08-21T00:48:11;23.80;;;9.70;;
71637;SDS011;59485;43.542;-5.676;2022-08-21T00:50:38;17.98;;;7.50;;
71637;SDS011;59485;43.542;-5.676;2022-08-21T00:53:08;22.10;;;8.37;;
71637;SDS011;59485;43.542;-5.676;2022-08-21T00:55:35;24.58;;;9.82;;
71637;SDS011;59485;43.542;-5.676;2022-08-21T00:58:03;14.50;;;7.07;;
71637;SDS011;59485;43.542;-5.676;2022-08-21T01:00:33;16.65;;;7.85;;
71637;SDS011;59485;43.542;-5.676;2022-08-21T01:03:05;18.25;;;6.97;;
71637;SDS011;59485;43.542;-5.676;2022-08-21T01:05:39;15.70;;;7.13;;
71637;SDS011;59485;43.542;-5.676;2022-08-21T01:08:05;17.73;;;6.90;;
71637;SDS011;59485;43.542;-5.676;2022-08-21T01:10:32;17.52;;;8.20;;
71637;SDS011;59485;43.542;-5.676;2022-08-21T01:12:58;20.45;;;10.50;;
71637;SDS011;59485;43.542;-5.676;2022-08-21T01:15:25;20.88;;;9.68;;
71637;SDS011;59485;43.542;-5.676;2022-08-21T01:17:57;23.23;;;9.07;;
71637;SDS011;59485;43.542;-5.676;2022-08-21T01:20:23;17.25;;;7.90;;
71637;SDS011;59485;43.542;-5.676;2022-08-21T01:22:48;16.70;;;7.07;;
71637;SDS011;59485;43.542;-5.676;2022-08-21T01:25:14;16.43;;;7.70;;
71637;SDS011;59485;43.542;-5.676;2022-08-21T01:27:46;14.57;;;7.30;;
71637;SDS011;59485;43.542;-5.676;2022-08-21T01:30:20;15.43;;;7.80;;
71637;SDS011;59485;43.542;-5.676;2022-08-21T01:32:49;19.75;;;10.85;;
71637;SDS011;59485;43.542;-5.676;2022-08-21T01:35:16;25.38;;;14.20;;
71637;SDS011;59485;43.542;-5.676;2022-08-21T01:37:44;26.23;;;13.80;;
71637;SDS011;59485;43.542;-5.676;2022-08-21T01:40:11;26.58;;;14.57;;
71637;SDS011;59485;43.542;-5.676;2022-08-21T01:42:38;30.57;;;16.00;;
71637;SDS011;59485;43.542;-5.676;2022-08-21T01:45:04;30.40;;;15.73;;
71637;SDS011;59485;43.542;-5.676;2022-08-21T01:47:31;34.35;;;17.45;;
71637;SDS011;59485;43.542;-5.676;2022-08-21T01:49:57;28.13;;;17.02;;
71637;SDS011;59485;43.542;-5.676;2022-08-21T01:52:23;24.87;;;14.63;;
71637;SDS011;59485;43.542;-5.676;2022-08-21T01:54:48;25.93;;;15.23;;
71637;SDS011;59485;43.542;-5.676;2022-08-21T01:57:14;29.70;;;17.03;;
71637;SDS011;59485;43.542;-5.676;2022-08-21T01:59:40;22.05;;;15.07;;
71637;SDS011;59485;43.542;-5.676;2022-08-21T02:02:05;22.63;;;13.23;;
71637;SDS011;59485;43.542;-5.676;2022-08-21T02:04:31;24.83;;;16.05;;
71637;SDS011;59485;43.542;-5.676;2022-08-21T02:06:57;21.33;;;12.90;;
71637;SDS011;59485;43.542;-5.676;2022-08-21T02:09:24;22.85;;;12.55;;
71637;SDS011;59485;43.542;-5.676;2022-08-21T02:11:50;22.25;;;12.00;;
71637;SDS011;59485;43.542;-5.676;2022-08-21T02:14:16;20.25;;;11.35;;
71637;SDS011;59485;43.542;-5.676;2022-08-21T02:16:43;17.13;;;9.80;;
71637;SDS011;59485;43.542;-5.676;2022-08-21T02:19:09;15.75;;;8.52;;
71637;SDS011;59485;43.542;-5.676;2022-08-21T02:21:36;18.63;;;8.60;;
71637;SDS011;59485;43.542;-5.676;2022-08-21T02:24:02;17.90;;;8.70;;
71637;SDS011;59485;43.542;-5.676;2022-08-21T02:26:28;15.00;;;7.90;;
71637;SDS011;59485;43.542;-5.676;2022-08-21T02:28:54;12.35;;;6.53;;
71637;SDS011;59485;43.542;-5.676;2022-08-21T02:31:20;12.90;;;6.40;;
71637;SDS011;59485;43.542;-5.676;2022-08-21T02:33:45;13.60;;;6.67;;
71637;SDS011;59485;43.542;-5.676;2022-08-21T02:36:11;14.30;;;6.45;;
71637;SDS011;59485;43.542;-5.676;2022-08-21T02:38:37;10.50;;;6.20;;
71637;SDS011;59485;43.542;-5.676;2022-08-21T02:41:06;14.30;;;6.75;;
71637;SDS011;59485;43.542;-5.676;2022-08-21T02:43:34;12.85;;;6.95;;
71637;SDS011;59485;43.542;-5.676;2022-08-21T02:46:00;10.23;;;6.18;;
71637;SDS011;59485;43.542;-5.676;2022-08-21T02:48:29;13.65;;;6.70;;
71637;SDS011;59485;43.542;-5.676;2022-08-21T02:50:59;12.07;;;6.27;;
71637;SDS011;59485;43.542;-5.676;2022-08-21T02:53:28;12.63;;;6.47;;
71637;SDS011;59485;43.542;-5.676;2022-08-21T02:55:54;13.73;;;7.07;;
71637;SDS011;59485;43.542;-5.676;2022-08-21T02:58:27;11.82;;;6.25;;
71637;SDS011;59485;43.542;-5.676;2022-08-21T03:00:55;13.07;;;7.07;;
71637;SDS011;59485;43.542;-5.676;2022-08-21T03:03:21;11.77;;;6.53;;
71637;SDS011;59485;43.542;-5.676;2022-08-21T03:05:47;15.60;;;7.10;;
71637;SDS011;59485;43.542;-5.676;2022-08-21T03:08:13;14.70;;;6.95;;
71637;SDS011;59485;43.542;-5.676;2022-08-21T03:10:42;15.00;;;7.25;;
71637;SDS011;59485;43.542;-5.676;2022-08-21T03:13:11;11.00;;;7.23;;
71637;SDS011;59485;43.542;-5.676;2022-08-21T03:15:38;16.45;;;6.68;;
71637;SDS011;59485;43.542;-5.676;2022-08-21T03:18:05;15.27;;;6.97;;
71637;SDS011;59485;43.542;-5.676;2022-08-21T03:20:32;15.75;;;8.48;;
71637;SDS011;59485;43.542;-5.676;2022-08-21T03:22:57;11.73;;;7.00;;
71637;SDS011;59485;43.542;-5.676;2022-08-21T03:25:24;15.23;;;7.20;;
71637;SDS011;59485;43.542;-5.676;2022-08-21T03:27:50;14.20;;;7.55;;
71637;SDS011;59485;43.542;-5.676;2022-08-21T03:30:16;12.37;;;7.73;;
71637;SDS011;59485;43.542;-5.676;2022-08-21T03:32:45;16.05;;;7.95;;
71637;SDS011;59485;43.542;-5.676;2022-08-21T03:35:11;16.58;;;7.72;;
71637;SDS011;59485;43.542;-5.676;2022-08-21T03:37:37;15.82;;;8.18;;
71637;SDS011;59485;43.542;-5.676;2022-08-21T03:40:06;18.47;;;7.97;;
71637;SDS011;59485;43.542;-5.676;2022-08-21T03:42:33;16.65;;;7.97;;
71637;SDS011;59485;43.542;-5.676;2022-08-21T03:44:59;19.98;;;9.25;;
71637;SDS011;59485;43.542;-5.676;2022-08-21T03:47:26;16.40;;;7.83;;
71637;SDS011;59485;43.542;-5.676;2022-08-21T03:49:51;17.90;;;7.43;;
71637;SDS011;59485;43.542;-5.676;2022-08-21T03:52:17;17.13;;;9.00;;
71637;SDS011;59485;43.542;-5.676;2022-08-21T03:54:45;20.08;;;8.85;;
71637;SDS011;59485;43.542;-5.676;2022-08-21T03:57:11;18.77;;;8.00;;
71637;SDS011;59485;43.542;-5.676;2022-08-21T03:59:37;18.33;;;9.20;;
71637;SDS011;59485;43.542;-5.676;2022-08-21T04:02:04;15.47;;;7.07;;
71637;SDS011;59485;43.542;-5.676;2022-08-21T04:04:31;15.00;;;7.47;;
71637;SDS011;59485;43.542;-5.676;2022-08-21T04:06:57;20.60;;;8.75;;
71637;SDS011;59485;43.542;-5.676;2022-08-21T04:09:23;19.42;;;8.05;;
71637;SDS011;59485;43.542;-5.676;2022-08-21T04:11:50;17.35;;;7.43;;
71637;SDS011;59485;43.542;-5.676;2022-08-21T04:14:16;15.77;;;7.67;;
71637;SDS011;59485;43.542;-5.676;2022-08-21T04:16:42;13.23;;;6.70;;
71637;SDS011;59485;43.542;-5.676;2022-08-21T04:19:09;19.23;;;7.95;;
71637;SDS011;59485;43.542;-5.676;2022-08-21T04:21:36;20.37;;;9.93;;
71637;SDS011;59485;43.542;-5.676;2022-08-21T04:24:03;18.48;;;7.97;;
71637;SDS011;59485;43.542;-5.676;2022-08-21T04:26:29;18.48;;;8.55;;
71637;SDS011;59485;43.542;-5.676;2022-08-21T04:28:56;16.33;;;7.57;;
71637;SDS011;59485;43.542;-5.676;2022-08-21T04:31:24;14.85;;;8.20;;
71637;SDS011;59485;43.542;-5.676;2022-08-21T04:33:50;14.40;;;7.77;;
71637;SDS011;59485;43.542;-5.676;2022-08-21T04:36:16;15.88;;;8.00;;
71637;SDS011;59485;43.542;-5.676;2022-08-21T04:38:42;17.20;;;9.13;;
71637;SDS011;59485;43.542;-5.676;2022-08-21T04:41:08;16.53;;;9.37;;
71637;SDS011;59485;43.542;-5.676;2022-08-21T04:43:33;15.07;;;9.15;;
71637;SDS011;59485;43.542;-5.676;2022-08-21T04:45:59;16.33;;;8.50;;
71637;SDS011;59485;43.542;-5.676;2022-08-21T04:48:25;19.85;;;9.32;;
71637;SDS011;59485;43.542;-5.676;2022-08-21T04:50:59;18.10;;;9.73;;
71637;SDS011;59485;43.542;-5.676;2022-08-21T04:53:30;17.13;;;9.82;;
71637;SDS011;59485;43.542;-5.676;2022-08-21T04:56:00;16.37;;;8.67;;
71637;SDS011;59485;43.542;-5.676;2022-08-21T04:58:29;20.25;;;10.70;;
71637;SDS011;59485;43.542;-5.676;2022-08-21T05:00:58;18.63;;;8.98;;
71637;SDS011;59485;43.542;-5.676;2022-08-21T05:03:25;18.95;;;9.13;;
71637;SDS011;59485;43.542;-5.676;2022-08-21T05:05:51;16.93;;;9.57;;
71637;SDS011;59485;43.542;-5.676;2022-08-21T05:08:18;22.85;;;9.65;;
71637;SDS011;59485;43.542;-5.676;2022-08-21T05:10:46;22.33;;;9.20;;
71637;SDS011;59485;43.542;-5.676;2022-08-21T05:13:12;21.33;;;9.75;;
71637;SDS011;59485;43.542;-5.676;2022-08-21T05:15:39;21.23;;;9.30;;
71637;SDS011;59485;43.542;-5.676;2022-08-21T05:18:05;20.48;;;10.35;;
71637;SDS011;59485;43.542;-5.676;2022-08-21T05:20:32;21.38;;;9.27;;
71637;SDS011;59485;43.542;-5.676;2022-08-21T05:22:59;15.73;;;8.32;;
71637;SDS011;59485;43.542;-5.676;2022-08-21T05:25:25;21.33;;;9.30;;
71637;SDS011;59485;43.542;-5.676;2022-08-21T05:27:50;18.58;;;8.50;;
71637;SDS011;59485;43.542;-5.676;2022-08-21T05:30:16;19.87;;;8.10;;
71637;SDS011;59485;43.542;-5.676;2022-08-21T05:32:41;17.13;;;7.50;;
71637;SDS011;59485;43.542;-5.676;2022-08-21T05:35:07;16.00;;;7.22;;
71637;SDS011;59485;43.542;-5.676;2022-08-21T05:37:33;14.13;;;7.40;;
71637;SDS011;59485;43.542;-5.676;2022-08-21T05:39:59;17.50;;;8.13;;
71637;SDS011;59485;43.542;-5.676;2022-08-21T05:42:25;15.77;;;7.55;;
71637;SDS011;59485;43.542;-5.676;2022-08-21T05:44:51;16.13;;;8.00;;
71637;SDS011;59485;43.542;-5.676;2022-08-21T05:47:16;15.45;;;7.63;;
71637;SDS011;59485;43.542;-5.676;2022-08-21T05:49:42;18.30;;;7.47;;
71637;SDS011;59485;43.542;-5.676;2022-08-21T05:52:07;16.10;;;7.80;;
71637;SDS011;59485;43.542;-5.676;2022-08-21T05:54:33;12.43;;;7.30;;
71637;SDS011;59485;43.542;-5.676;2022-08-21T05:57:03;16.92;;;7.45;;
71637;SDS011;59485;43.542;-5.676;2022-08-21T05:59:28;14.48;;;6.75;;
71637;SDS011;59485;43.542;-5.676;2022-08-21T06:01:54;10.23;;;6.83;;
71637;SDS011;59485;43.542;-5.676;2022-08-21T06:04:20;13.77;;;6.75;;
71637;SDS011;59485;43.542;-5.676;2022-08-21T06:06:45;11.63;;;5.90;;
71637;SDS011;59485;43.542;-5.676;2022-08-21T06:09:12;13.02;;;7.07;;
71637;SDS011;59485;43.542;-5.676;2022-08-21T06:11:38;12.80;;;6.60;;
71637;SDS011;59485;43.542;-5.676;2022-08-21T06:14:03;14.45;;;6.70;;
71637;SDS011;59485;43.542;-5.676;2022-08-21T06:16:31;13.93;;;6.28;;
71637;SDS011;59485;43.542;-5.676;2022-08-21T06:18:56;15.57;;;7.70;;
71637;SDS011;59485;43.542;-5.676;2022-08-21T06:21:22;13.73;;;6.13;;
71637;SDS011;59485;43.542;-5.676;2022-08-21T06:23:47;12.80;;;6.07;;
71637;SDS011;59485;43.542;-5.676;2022-08-21T06:26:13;15.50;;;6.90;;
71637;SDS011;59485;43.542;-5.676;2022-08-21T06:28:40;13.68;;;6.03;;
71637;SDS011;59485;43.542;-5.676;2022-08-21T06:31:15;14.73;;;6.78;;
71637;SDS011;59485;43.542;-5.676;2022-08-21T06:33:43;15.27;;;7.13;;
71637;SDS011;59485;43.542;-5.676;2022-08-21T06:36:09;11.77;;;6.68;;
71637;SDS011;59485;43.542;-5.676;2022-08-21T06:38:35;13.90;;;6.63;;
71637;SDS011;59485;43.542;-5.676;2022-08-21T06:41:01;13.13;;;6.83;;
71637;SDS011;59485;43.542;-5.676;2022-08-21T06:43:27;14.77;;;7.18;;
71637;SDS011;59485;43.542;-5.676;2022-08-21T06:45:53;20.20;;;8.02;;
71637;SDS011;59485;43.542;-5.676;2022-08-21T06:48:19;14.83;;;7.30;;
71637;SDS011;59485;43.542;-5.676;2022-08-21T06:50:44;19.50;;;8.40;;
71637;SDS011;59485;43.542;-5.676;2022-08-21T06:53:11;18.30;;;7.17;;
71637;SDS011;59485;43.542;-5.676;2022-08-21T06:55:39;20.52;;;7.90;;
71637;SDS011;59485;43.542;-5.676;2022-08-21T06:58:05;17.55;;;7.78;;
71637;SDS011;59485;43.542;-5.676;2022-08-21T07:00:32;18.23;;;8.00;;
71637;SDS011;59485;43.542;-5.676;2022-08-21T07:02:59;16.77;;;9.57;;
71637;SDS011;59485;43.542;-5.676;2022-08-21T07:05:25;13.87;;;8.17;;
71637;SDS011;59485;43.542;-5.676;2022-08-21T07:07:52;18.30;;;8.60;;
71637;SDS011;59485;43.542;-5.676;2022-08-21T07:10:18;15.93;;;8.03;;
71637;SDS011;59485;43.542;-5.676;2022-08-21T07:12:43;15.85;;;8.48;;
71637;SDS011;59485;43.542;-5.676;2022-08-21T07:15:11;19.92;;;8.40;;
71637;SDS011;59485;43.542;-5.676;2022-08-21T07:17:36;17.57;;;8.87;;
71637;SDS011;59485;43.542;-5.676;2022-08-21T07:20:03;13.57;;;7.55;;
71637;SDS011;59485;43.542;-5.676;2022-08-21T07:22:29;15.00;;;8.63;;
71637;SDS011;59485;43.542;-5.676;2022-08-21T07:24:55;15.32;;;9.13;;
71637;SDS011;59485;43.542;-5.676;2022-08-21T07:27:21;16.03;;;8.93;;
71637;SDS011;59485;43.542;-5.676;2022-08-21T07:29:46;20.98;;;9.27;;
71637;SDS011;59485;43.542;-5.676;2022-08-21T07:32:12;16.67;;;9.60;;
71637;SDS011;59485;43.542;-5.676;2022-08-21T07:34:40;16.40;;;8.87;;
71637;SDS011;59485;43.542;-5.676;2022-08-21T07:37:06;15.85;;;9.10;;
71637;SDS011;59485;43.542;-5.676;2022-08-21T07:39:31;16.10;;;8.75;;
71637;SDS011;59485;43.542;-5.676;2022-08-21T07:41:57;16.80;;;8.87;;
71637;SDS011;59485;43.542;-5.676;2022-08-21T07:44:22;14.87;;;8.67;;
71637;SDS011;59485;43.542;-5.676;2022-08-21T07:46:48;14.70;;;8.50;;
71637;SDS011;59485;43.542;-5.676;2022-08-21T07:49:13;15.85;;;8.27;;
71637;SDS011;59485;43.542;-5.676;2022-08-21T07:51:39;15.87;;;8.47;;
71637;SDS011;59485;43.542;-5.676;2022-08-21T07:54:04;16.43;;;8.20;;
71637;SDS011;59485;43.542;-5.676;2022-08-21T07:56:30;17.33;;;7.88;;
71637;SDS011;59485;43.542;-5.676;2022-08-21T07:58:56;14.68;;;6.88;;
71637;SDS011;59485;43.542;-5.676;2022-08-21T08:01:23;11.63;;;6.60;;
71637;SDS011;59485;43.542;-5.676;2022-08-21T08:03:49;14.73;;;8.00;;
71637;SDS011;59485;43.542;-5.676;2022-08-21T08:06:15;13.60;;;7.15;;
71637;SDS011;59485;43.542;-5.676;2022-08-21T08:08:43;14.67;;;6.77;;
71637;SDS011;59485;43.542;-5.676;2022-08-21T08:11:09;14.68;;;6.75;;
71637;SDS011;59485;43.542;-5.676;2022-08-21T08:13:40;13.80;;;6.88;;
71637;SDS011;59485;43.542;-5.676;2022-08-21T08:16:12;14.07;;;6.10;;
71637;SDS011;59485;43.542;-5.676;2022-08-21T08:18:39;15.57;;;6.40;;
71637;SDS011;59485;43.542;-5.676;2022-08-21T08:21:06;12.93;;;6.63;;
71637;SDS011;59485;43.542;-5.676;2022-08-21T08:23:32;17.75;;;6.03;;
71637;SDS011;59485;43.542;-5.676;2022-08-21T08:25:58;11.68;;;6.10;;
71637;SDS011;59485;43.542;-5.676;2022-08-21T08:28:24;16.40;;;6.37;;
71637;SDS011;59485;43.542;-5.676;2022-08-21T08:30:50;12.68;;;7.25;;
71637;SDS011;59485;43.542;-5.676;2022-08-21T08:33:18;15.27;;;6.20;;
71637;SDS011;59485;43.542;-5.676;2022-08-21T08:35:46;16.58;;;6.82;;
71637;SDS011;59485;43.542;-5.676;2022-08-21T08:38:14;14.13;;;6.40;;
71637;SDS011;59485;43.542;-5.676;2022-08-21T08:40:46;14.88;;;6.38;;
71637;SDS011;59485;43.542;-5.676;2022-08-21T08:43:24;14.48;;;5.97;;
71637;SDS011;59485;43.542;-5.676;2022-08-21T08:45:52;10.43;;;4.88;;
71637;SDS011;59485;43.542;-5.676;2022-08-21T08:54:05;14.73;;;5.90;;
71637;SDS011;59485;43.542;-5.676;2022-08-21T08:56:36;12.40;;;5.57;;
71637;SDS011;59485;43.542;-5.676;2022-08-21T08:59:25;13.00;;;6.43;;
71637;SDS011;59485;43.542;-5.676;2022-08-21T09:01:52;10.33;;;5.43;;
71637;SDS011;59485;43.542;-5.676;2022-08-21T09:04:22;11.27;;;6.13;;
71637;SDS011;59485;43.542;-5.676;2022-08-21T09:18:38;12.85;;;5.55;;
71637;SDS011;59485;43.542;-5.676;2022-08-21T09:26:55;13.18;;;8.88;;
71637;SDS011;59485;43.542;-5.676;2022-08-21T09:29:33;11.73;;;6.27;;
71637;SDS011;59485;43.542;-5.676;2022-08-21T09:32:02;10.25;;;7.00;;
71637;SDS011;59485;43.542;-5.676;2022-08-21T09:34:34;17.38;;;8.70;;
71637;SDS011;59485;43.542;-5.676;2022-08-21T09:37:01;16.75;;;9.13;;
71637;SDS011;59485;43.542;-5.676;2022-08-21T09:39:28;12.50;;;6.30;;
71637;SDS011;59485;43.542;-5.676;2022-08-21T09:42:06;12.27;;;6.43;;
71637;SDS011;59485;43.542;-5.676;2022-08-21T09:44:35;12.43;;;7.10;;
71637;SDS011;59485;43.542;-5.676;2022-08-21T09:47:05;15.20;;;7.80;;
71637;SDS011;59485;43.542;-5.676;2022-08-21T09:49:33;12.30;;;7.75;;
71637;SDS011;59485;43.542;-5.676;2022-08-21T09:52:04;15.30;;;7.80;;
71637;SDS011;59485;43.542;-5.676;2022-08-21T09:54:43;12.00;;;7.18;;
71637;SDS011;59485;43.542;-5.676;2022-08-21T09:57:14;11.57;;;6.50;;
71637;SDS011;59485;43.542;-5.676;2022-08-21T10:00:24;12.50;;;6.40;;
71637;SDS011;59485;43.542;-5.676;2022-08-21T10:02:51;13.68;;;6.78;;
71637;SDS011;59485;43.542;-5.676;2022-08-21T10:05:25;14.10;;;6.13;;
71637;SDS011;59485;43.542;-5.676;2022-08-21T10:07:52;12.32;;;6.45;;
71637;SDS011;59485;43.542;-5.676;2022-08-21T10:10:19;11.90;;;6.32;;
71637;SDS011;59485;43.542;-5.676;2022-08-21T10:18:09;12.35;;;4.90;;
71637;SDS011;59485;43.542;-5.676;2022-08-21T10:20:37;9.75;;;4.85;;
71637;SDS011;59485;43.542;-5.676;2022-08-21T10:28:49;12.03;;;4.70;;
71637;SDS011;59485;43.542;-5.676;2022-08-21T10:34:18;11.95;;;4.60;;
71637;SDS011;59485;43.542;-5.676;2022-08-21T10:48:24;12.38;;;3.70;;
71637;SDS011;59485;43.542;-5.676;2022-08-21T10:50:55;12.32;;;4.07;;
71637;SDS011;59485;43.542;-5.676;2022-08-21T10:56:19;11.23;;;3.83;;
71637;SDS011;59485;43.542;-5.676;2022-08-21T11:06:59;19.25;;;4.18;;
71637;SDS011;59485;43.542;-5.676;2022-08-21T11:09:29;10.23;;;2.80;;
71637;SDS011;59485;43.542;-5.676;2022-08-21T11:11:57;10.82;;;3.03;;
71637;SDS011;59485;43.542;-5.676;2022-08-21T11:17:00;14.00;;;2.67;;
71637;SDS011;59485;43.542;-5.676;2022-08-21T11:19:40;12.38;;;3.10;;
71637;SDS011;59485;43.542;-5.676;2022-08-21T11:28:02;17.37;;;3.50;;
71637;SDS011;59485;43.542;-5.676;2022-08-21T11:33:47;17.38;;;3.22;;
71637;SDS011;59485;43.542;-5.676;2022-08-21T11:39:51;9.93;;;2.30;;
71637;SDS011;59485;43.542;-5.676;2022-08-21T11:45:08;13.25;;;2.10;;
71637;SDS011;59485;43.542;-5.676;2022-08-21T11:47:48;18.52;;;2.30;;
71637;SDS011;59485;43.542;-5.676;2022-08-21T11:50:31;9.93;;;2.55;;
71637;SDS011;59485;43.542;-5.676;2022-08-21T11:55:50;12.73;;;2.37;;
71637;SDS011;59485;43.542;-5.676;2022-08-21T11:58:28;10.32;;;2.53;;
71637;SDS011;59485;43.542;-5.676;2022-08-21T12:01:09;9.35;;;2.40;;
71637;SDS011;59485;43.542;-5.676;2022-08-21T12:03:51;13.43;;;2.50;;
71637;SDS011;59485;43.542;-5.676;2022-08-21T12:06:26;8.32;;;2.17;;
71637;SDS011;59485;43.542;-5.676;2022-08-21T12:08:57;9.37;;;1.80;;
71637;SDS011;59485;43.542;-5.676;2022-08-21T12:11:25;7.03;;;2.55;;
71637;SDS011;59485;43.542;-5.676;2022-08-21T12:13:55;9.48;;;2.40;;
71637;SDS011;59485;43.542;-5.676;2022-08-21T12:16:28;8.43;;;2.50;;
71637;SDS011;59485;43.542;-5.676;2022-08-21T12:19:07;8.40;;;2.13;;
71637;SDS011;59485;43.542;-5.676;2022-08-21T12:27:41;8.30;;;2.28;;
71637;SDS011;59485;43.542;-5.676;2022-08-21T12:30:20;9.98;;;2.70;;
71637;SDS011;59485;43.542;-5.676;2022-08-21T12:32:54;6.13;;;2.33;;
71637;SDS011;59485;43.542;-5.676;2022-08-21T12:35:26;9.23;;;2.15;;
71637;SDS011;59485;43.542;-5.676;2022-08-21T12:38:07;10.90;;;3.15;;
71637;SDS011;59485;43.542;-5.676;2022-08-21T12:40:54;5.78;;;1.85;;
71637;SDS011;59485;43.542;-5.676;2022-08-21T12:45:58;9.57;;;2.10;;
71637;SDS011;59485;43.542;-5.676;2022-08-21T12:48:33;8.45;;;2.40;;
71637;SDS011;59485;43.542;-5.676;2022-08-21T12:53:59;8.05;;;2.17;;
71637;SDS011;59485;43.542;-5.676;2022-08-21T12:56:26;8.05;;;2.88;;
71637;SDS011;59485;43.542;-5.676;2022-08-21T12:58:54;7.87;;;2.17;;
71637;SDS011;59485;43.542;-5.676;2022-08-21T13:04:36;6.90;;;2.70;;
71637;SDS011;59485;43.542;-5.676;2022-08-21T13:07:10;9.43;;;2.10;;
71637;SDS011;59485;43.542;-5.676;2022-08-21T13:09:52;6.38;;;2.20;;
71637;SDS011;59485;43.542;-5.676;2022-08-21T13:12:21;6.90;;;2.50;;
71637;SDS011;59485;43.542;-5.676;2022-08-21T13:14:48;5.20;;;2.30;;
71637;SDS011;59485;43.542;-5.676;2022-08-21T13:17:17;10.57;;;2.40;;
71637;SDS011;59485;43.542;-5.676;2022-08-21T13:19:54;9.40;;;2.13;;
71637;SDS011;59485;43.542;-5.676;2022-08-21T13:22:24;8.35;;;3.22;;
71637;SDS011;59485;43.542;-5.676;2022-08-21T13:24:51;6.67;;;2.20;;
71637;SDS011;59485;43.542;-5.676;2022-08-21T13:27:19;11.90;;;2.80;;
71637;SDS011;59485;43.542;-5.676;2022-08-21T13:30:00;9.60;;;2.20;;
71637;SDS011;59485;43.542;-5.676;2022-08-21T13:32:27;6.07;;;2.08;;
71637;SDS011;59485;43.542;-5.676;2022-08-21T13:34:57;8.38;;;2.75;;
71637;SDS011;59485;43.542;-5.676;2022-08-21T13:37:25;8.32;;;2.58;;
71637;SDS011;59485;43.542;-5.676;2022-08-21T13:39:53;6.90;;;2.70;;
71637;SDS011;59485;43.542;-5.676;2022-08-21T13:42:18;9.10;;;3.07;;
71637;SDS011;59485;43.542;-5.676;2022-08-21T13:44:45;9.93;;;2.40;;
71637;SDS011;59485;43.542;-5.676;2022-08-21T13:47:14;6.80;;;2.65;;
71637;SDS011;59485;43.542;-5.676;2022-08-21T13:49:45;8.20;;;2.63;;
71637;SDS011;59485;43.542;-5.676;2022-08-21T13:54:51;7.22;;;2.40;;
71637;SDS011;59485;43.542;-5.676;2022-08-21T13:57:26;6.28;;;2.25;;
71637;SDS011;59485;43.542;-5.676;2022-08-21T14:02:41;10.37;;;2.50;;
71637;SDS011;59485;43.542;-5.676;2022-08-21T14:05:14;7.22;;;2.70;;
71637;SDS011;59485;43.542;-5.676;2022-08-21T14:07:44;8.18;;;2.55;;
71637;SDS011;59485;43.542;-5.676;2022-08-21T14:10:15;7.93;;;2.60;;
71637;SDS011;59485;43.542;-5.676;2022-08-21T14:15:12;8.20;;;2.50;;
71637;SDS011;59485;43.542;-5.676;2022-08-21T14:17:41;5.93;;;2.63;;
71637;SDS011;59485;43.542;-5.676;2022-08-21T14:20:12;9.32;;;2.63;;
71637;SDS011;59485;43.542;-5.676;2022-08-21T14:22:53;6.07;;;2.10;;
71637;SDS011;59485;43.542;-5.676;2022-08-21T14:27:51;12.10;;;2.75;;
71637;SDS011;59485;43.542;-5.676;2022-08-21T14:30:21;8.88;;;2.70;;
71637;SDS011;59485;43.542;-5.676;2022-08-21T14:33:00;7.80;;;2.70;;
71637;SDS011;59485;43.542;-5.676;2022-08-21T14:35:26;11.18;;;2.63;;
71637;SDS011;59485;43.542;-5.676;2022-08-21T14:37:52;7.28;;;2.97;;
71637;SDS011;59485;43.542;-5.676;2022-08-21T14:40:20;9.15;;;3.08;;
71637;SDS011;59485;43.542;-5.676;2022-08-21T14:42:49;8.20;;;2.13;;
71637;SDS011;59485;43.542;-5.676;2022-08-21T14:47:48;5.40;;;2.15;;
71637;SDS011;59485;43.542;-5.676;2022-08-21T14:50:14;10.77;;;2.20;;
71637;SDS011;59485;43.542;-5.676;2022-08-21T14:52:41;7.70;;;2.60;;
71637;SDS011;59485;43.542;-5.676;2022-08-21T14:55:08;7.03;;;2.70;;
71637;SDS011;59485;43.542;-5.676;2022-08-21T14:57:39;6.25;;;1.92;;
71637;SDS011;59485;43.542;-5.676;2022-08-21T15:00:13;8.70;;;2.17;;
71637;SDS011;59485;43.542;-5.676;2022-08-21T15:02:42;7.28;;;2.33;;
71637;SDS011;59485;43.542;-5.676;2022-08-21T15:05:08;6.07;;;1.98;;
71637;SDS011;59485;43.542;-5.676;2022-08-21T15:07:33;7.00;;;2.13;;
71637;SDS011;59485;43.542;-5.676;2022-08-21T15:10:10;7.75;;;2.55;;
71637;SDS011;59485;43.542;-5.676;2022-08-21T15:12:36;5.47;;;2.38;;
71637;SDS011;59485;43.542;-5.676;2022-08-21T15:15:04;10.27;;;3.00;;
71637;SDS011;59485;43.542;-5.676;2022-08-21T15:17:30;15.32;;;3.42;;
71637;SDS011;59485;43.542;-5.676;2022-08-21T15:19:56;6.28;;;2.90;;
71637;SDS011;59485;43.542;-5.676;2022-08-21T15:22:22;6.00;;;2.57;;
71637;SDS011;59485;43.542;-5.676;2022-08-21T15:28:24;7.35;;;3.17;;
71637;SDS011;59485;43.542;-5.676;2022-08-21T15:30:50;8.43;;;3.30;;
71637;SDS011;59485;43.542;-5.676;2022-08-21T15:33:16;9.73;;;2.80;;
71637;SDS011;59485;43.542;-5.676;2022-08-21T15:35:42;8.82;;;2.67;;
71637;SDS011;59485;43.542;-5.676;2022-08-21T15:38:09;10.18;;;3.13;;
71637;SDS011;59485;43.542;-5.676;2022-08-21T15:40:34;10.43;;;2.83;;
71637;SDS011;59485;43.542;-5.676;2022-08-21T15:43:02;9.23;;;3.17;;
71637;SDS011;59485;43.542;-5.676;2022-08-21T15:45:29;10.00;;;2.88;;
71637;SDS011;59485;43.542;-5.676;2022-08-21T15:47:55;8.90;;;2.47;;
71637;SDS011;59485;43.542;-5.676;2022-08-21T15:50:22;7.83;;;2.93;;
71637;SDS011;59485;43.542;-5.676;2022-08-21T15:52:48;9.25;;;2.60;;
71637;SDS011;59485;43.542;-5.676;2022-08-21T15:55:15;7.43;;;2.88;;
71637;SDS011;59485;43.542;-5.676;2022-08-21T15:57:45;5.90;;;2.80;;
71637;SDS011;59485;43.542;-5.676;2022-08-21T16:00:23;6.63;;;2.67;;
71637;SDS011;59485;43.542;-5.676;2022-08-21T16:02:50;7.47;;;2.60;;
71637;SDS011;59485;43.542;-5.676;2022-08-21T16:05:20;6.88;;;2.97;;
71637;SDS011;59485;43.542;-5.676;2022-08-21T16:07:48;6.75;;;3.00;;
71637;SDS011;59485;43.542;-5.676;2022-08-21T16:10:15;7.63;;;3.10;;
71637;SDS011;59485;43.542;-5.676;2022-08-21T16:12:43;6.55;;;2.97;;
71637;SDS011;59485;43.542;-5.676;2022-08-21T16:15:13;8.77;;;3.17;;
71637;SDS011;59485;43.542;-5.676;2022-08-21T16:17:41;9.02;;;3.28;;
71637;SDS011;59485;43.542;-5.676;2022-08-21T16:20:12;6.65;;;2.75;;
71637;SDS011;59485;43.542;-5.676;2022-08-21T16:22:40;9.00;;;3.17;;